Overview Statistics Trail Chart Weather Telemetry Raw packets
 

This is the latest recevied weather packets stored in our database for station/object IZ8QAD-4. If no packets are shown the sender has not sent any weather packets the latest 10 day(s).

<< 1 2 3 4 5 >>
Time Temp. Humidity Pressure Rain* Wind** Luminosity Snow
1788563373 32.78° C 27% 972 hPa - - - -
1788561639 32.78° C 27% 971.9 hPa - - - -
1788561573 32.78° C 27% 971.9 hPa - - - -
1788559773 32.78° C 27% 972 hPa - - - -
1788557973 32.78° C 27% 972 hPa - - - -
1788556173 32.78° C 27% 972.1 hPa - - - -
1788554373 32.78° C 26% 972.1 hPa - - - -
1788552572 32.78° C 26% 972.2 hPa - - - -
1788550772 32.78° C 26% 972.4 hPa - - - -
1788548971 32.78° C 26% 972.1 hPa - - - -
1788547171 32.78° C 26% 971.8 hPa - - - -
1788545371 32.78° C 25% 971.4 hPa - - - -
1788543571 32.78° C 22% 970.9 hPa - - - -
1788541771 32.78° C 20% 970.7 hPa - - - -
1788539971 32.22° C 20% 970.6 hPa - - - -
1788538173 32.78° C 20% 970.5 hPa - - - -
1788536372 32.78° C 20% 970.4 hPa - - - -
1788534572 32.22° C 19% 970.5 hPa - - - -
1788532772 32.22° C 19% 970.4 hPa - - - -
1788530971 32.22° C 19% 970.5 hPa - - - -
1788529171 32.22° C 21% 970.6 hPa - - - -
1788527371 32.22° C 22% 970.7 hPa - - - -
1788525702 32.22° C 24% 971 hPa - - - -
1788525571 32.22° C 24% 971 hPa - - - -
1788523817 32.22° C 25% 971.3 hPa - - - -

* Rain since midnight (hover to see other rain measurements)
** Current wind speed in m/s (hover to see current wind gust speed)